Time;durP1;ratioP1;P1;durP2;ratioP2;P2;SDS_P1;SDS_P2;PMS_P1;PMS_P2;Temp;Humidity;BMP_temperature;BMP_pressure;BME280_temperature;BME280_humidity;BME280_pressure;Samples;Min_cycle;Max_cycle;Signal;HPM_P1;HPM_P2
2023/07/18 00:00:14;;;;;;;17.93;12.47;;;;;;;29.52;52.24;100979.56;6305498;22;20663;-76
2023/07/18 00:02:44;;;;;;;15.35;12.50;;;;;;;29.49;52.34;100977.41;6305543;22;20337;-77
2023/07/18 00:05:12;;;;;;;14.68;12.30;;;;;;;29.49;52.21;100983.69;6305789;22;20376;-77
2023/07/18 00:07:42;;;;;;;16.45;12.80;;;;;;;29.51;52.34;100978.75;6278282;22;20377;-77
2023/07/18 00:10:11;;;;;;;19.20;12.70;;;;;;;29.53;52.06;100972.97;6304317;22;20345;-77
2023/07/18 00:12:40;;;;;;;17.98;12.30;;;;;;;29.58;51.81;100983.03;6303337;22;20334;-76
2023/07/18 00:15:07;;;;;;;16.67;12.68;;;;;;;29.54;51.95;100974.63;6278297;22;20759;-75
2023/07/18 00:17:33;;;;;;;18.52;12.32;;;;;;;29.53;51.95;100973.81;6304101;22;20338;-76
2023/07/18 00:20:00;;;;;;;15.93;11.90;;;;;;;29.58;51.40;100978.38;6304842;22;20353;-76
2023/07/18 00:22:25;;;;;;;15.90;12.50;;;;;;;29.58;51.36;100966.66;6306476;22;20334;-76
2023/07/18 00:24:51;;;;;;;18.17;13.55;;;;;;;29.58;51.84;100966.66;6304804;22;20402;-77
2023/07/18 00:27:17;;;;;;;15.27;13.20;;;;;;;29.47;52.31;100961.31;6304197;22;20434;-77
2023/07/18 00:29:43;;;;;;;17.47;12.70;;;;;;;29.38;52.44;100959.53;6305256;22;20353;-77
2023/07/18 00:32:08;;;;;;;18.17;13.32;;;;;;;29.42;52.08;100957.81;6304498;22;20407;-76
2023/07/18 00:34:34;;;;;;;17.47;13.37;;;;;;;29.50;52.06;100962.66;6304651;22;20341;-76
2023/07/18 00:36:59;;;;;;;20.07;13.30;;;;;;;29.46;52.07;100950.66;6304609;22;20425;-76
2023/07/18 00:39:25;;;;;;;16.63;12.77;;;;;;;29.43;51.68;100956.72;6305772;22;20349;-77
2023/07/18 00:41:52;;;;;;;20.00;14.27;;;;;;;29.42;51.81;100952.38;6304926;22;20337;-76
2023/07/18 00:44:17;;;;;;;15.85;13.10;;;;;;;29.32;51.73;100948.66;6305103;22;20348;-77
2023/07/18 00:46:43;;;;;;;15.70;12.32;;;;;;;29.29;52.16;100951.16;6305413;22;20337;-77
2023/07/18 00:49:09;;;;;;;16.93;13.03;;;;;;;29.25;52.36;100950.91;6304773;22;20342;-76
2023/07/18 00:51:35;;;;;;;16.75;12.73;;;;;;;29.14;52.46;100941.19;6305278;22;20366;-77
2023/07/18 00:54:01;;;;;;;15.03;11.73;;;;;;;29.16;52.23;100950.72;6305077;22;20949;-78
2023/07/18 00:56:27;;;;;;;21.25;12.88;;;;;;;29.16;51.87;100947.19;6303989;22;20342;-77
2023/07/18 00:58:53;;;;;;;16.05;12.75;;;;;;;29.19;52.14;100948.53;6304946;22;20406;-76
2023/07/18 01:01:19;;;;;;;15.25;12.55;;;;;;;29.18;52.21;100955.91;6304443;22;20442;-76
2023/07/18 01:03:44;;;;;;;15.55;11.68;;;;;;;29.16;51.88;100950.72;6304360;22;20382;-76
2023/07/18 01:06:11;;;;;;;17.07;11.70;;;;;;;29.18;51.96;100955.91;6304886;22;20338;-76
2023/07/18 01:08:39;;;;;;;15.10;11.68;;;;;;;29.21;51.92;100951.78;6304273;22;20397;-77
2023/07/18 01:11:06;;;;;;;22.90;11.90;;;;;;;29.20;51.83;100955.63;6277142;22;20342;-77
2023/07/18 01:13:32;;;;;;;16.52;12.00;;;;;;;29.19;51.57;100952.09;6301653;22;20415;-76
2023/07/18 01:15:57;;;;;;;15.60;11.93;;;;;;;29.17;51.69;100948.81;6299976;22;20346;-77
2023/07/18 01:18:23;;;;;;;15.20;12.75;;;;;;;28.97;52.58;100947.06;6300499;22;20419;-76
2023/07/18 01:20:48;;;;;;;15.30;12.75;;;;;;;28.89;52.94;100939.53;6275855;22;20409;-77
2023/07/18 01:23:14;;;;;;;16.37;12.60;;;;;;;28.93;52.70;100957.75;6303603;22;20338;-77
2023/07/18 01:25:40;;;;;;;15.93;12.80;;;;;;;28.75;53.56;100958.47;6302360;22;20348;-77
2023/07/18 01:28:10;;;;;;;18.90;12.95;;;;;;;28.50;54.37;100954.00;6275685;22;20365;-77
2023/07/18 01:30:36;;;;;;;20.20;13.20;;;;;;;28.45;54.61;100954.06;6302863;22;20410;-76
2023/07/18 01:33:02;;;;;;;17.63;13.13;;;;;;;28.54;54.09;100958.66;6277436;22;20416;-76
2023/07/18 01:35:28;;;;;;;17.55;12.82;;;;;;;28.56;53.90;100951.00;6305005;22;20333;-76
2023/07/18 01:37:55;;;;;;;14.00;12.10;;;;;;;28.53;54.00;100956.19;6304921;22;20403;-75
2023/07/18 01:40:22;;;;;;;17.00;11.50;;;;;;;28.37;54.72;100966.38;6303821;22;20345;-77
2023/07/18 01:42:54;;;;;;;15.65;10.73;;;;;;;28.27;55.05;100961.84;6278010;22;20339;-77
2023/07/18 01:45:20;;;;;;;17.52;11.05;;;;;;;28.01;55.55;100964.69;6304627;22;20722;-76
2023/07/18 01:47:47;;;;;;;16.17;11.95;;;;;;;28.07;55.66;100972.84;6304611;22;20361;-76
2023/07/18 01:50:13;;;;;;;14.67;11.27;;;;;;;27.96;55.81;100978.34;6304733;22;20341;-76
2023/07/18 01:52:39;;;;;;;16.43;11.27;;;;;;;27.88;56.22;100968.00;6304614;22;20350;-76
2023/07/18 01:55:05;;;;;;;16.98;10.88;;;;;;;27.83;56.10;100965.31;6304513;22;20337;-77
2023/07/18 01:57:41;;;;;;;14.73;11.00;;;;;;;27.74;56.42;100969.72;6277868;22;20368;-77
2023/07/18 02:00:12;;;;;;;16.60;10.82;;;;;;;27.67;56.70;100978.19;6305931;22;20338;-77
2023/07/18 02:02:38;;;;;;;17.10;11.05;;;;;;;27.62;57.14;100980.91;6306520;22;20344;-76
2023/07/18 02:05:04;;;;;;;17.77;10.95;;;;;;;27.51;57.21;100979.31;6307008;22;20766;-77
2023/07/18 02:07:31;;;;;;;16.60;11.00;;;;;;;27.43;57.21;100970.63;6306396;22;20365;-75
2023/07/18 02:09:57;;;;;;;22.65;11.57;;;;;;;27.46;57.12;100974.72;6310097;22;20825;-76
2023/07/18 02:12:23;;;;;;;13.57;11.02;;;;;;;27.49;57.35;100985.03;6307159;22;20340;-78
2023/07/18 02:14:48;;;;;;;15.67;10.50;;;;;;;27.50;56.97;100989.41;6306120;22;20330;-77
2023/07/18 02:17:14;;;;;;;14.27;10.48;;;;;;;27.54;57.03;100992.41;6306576;22;20395;-77
2023/07/18 02:19:40;;;;;;;14.73;10.37;;;;;;;27.44;57.37;100993.22;6306706;22;20368;-76
2023/07/18 02:22:05;;;;;;;15.17;10.50;;;;;;;27.38;57.59;100997.88;6306510;22;20751;-77
2023/07/18 02:24:31;;;;;;;15.00;10.82;;;;;;;27.47;57.19;100998.13;6306110;22;20333;-77
2023/07/18 02:27:00;;;;;;;15.60;10.83;;;;;;;27.52;56.91;101003.56;6308432;22;20373;-76
2023/07/18 02:29:25;;;;;;;13.70;10.40;;;;;;;27.48;56.84;101002.50;6306737;22;20363;-77
2023/07/18 02:31:51;;;;;;;14.80;10.35;;;;;;;27.31;57.28;101008.22;6278798;22;20880;-78
2023/07/18 02:34:16;;;;;;;15.57;10.53;;;;;;;27.22;57.85;101013.38;6306137;22;20372;-76
2023/07/18 02:36:42;;;;;;;15.95;10.80;;;;;;;27.20;57.83;101012.84;6306298;22;20399;-77
2023/07/18 02:39:10;;;;;;;14.40;10.48;;;;;;;27.02;58.26;101016.13;6305998;22;20340;-77
2023/07/18 02:41:36;;;;;;;14.63;10.50;;;;;;;27.08;57.97;101015.88;6306251;22;20334;-77
2023/07/18 02:44:02;;;;;;;14.23;10.57;;;;;;;27.21;57.48;101016.41;6305542;22;20781;-77
2023/07/18 02:46:27;;;;;;;16.40;11.15;;;;;;;27.21;57.46;101019.13;6305991;22;20334;-77
2023/07/18 02:48:52;;;;;;;16.67;10.80;;;;;;;27.24;57.73;101021.28;6305501;22;20361;-77
2023/07/18 02:51:18;;;;;;;15.53;10.90;;;;;;;27.11;57.87;101030.00;6305728;22;20338;-76
2023/07/18 02:53:44;;;;;;;22.48;11.50;;;;;;;27.04;58.01;101020.19;6305901;22;20334;-76
2023/07/18 02:56:10;;;;;;;16.33;11.15;;;;;;;27.10;57.90;101018.31;6306313;22;20477;-75
2023/07/18 02:58:35;;;;;;;15.13;11.30;;;;;;;27.19;57.60;101013.94;6305491;22;20394;-77
2023/07/18 03:01:01;;;;;;;17.17;11.95;;;;;;;27.21;57.72;101014.50;6305486;22;20747;-76
2023/07/18 03:03:27;;;;;;;16.13;11.87;;;;;;;27.18;57.58;101009.59;6305647;22;20418;-76
2023/07/18 03:05:53;;;;;;;15.85;11.63;;;;;;;27.33;57.35;101013.41;6306780;22;20349;-76
2023/07/18 03:08:19;;;;;;;17.90;12.15;;;;;;;27.35;57.07;101017.50;6305575;22;20810;-77
2023/07/18 03:10:46;;;;;;;17.75;11.95;;;;;;;27.39;57.37;101017.75;6306005;22;20342;-77
2023/07/18 03:13:12;;;;;;;13.65;12.25;;;;;;;27.44;57.00;101015.00;6306668;22;20337;-77
2023/07/18 03:15:39;;;;;;;15.10;11.88;;;;;;;27.44;57.12;101007.69;6306123;22;20693;-76
2023/07/18 03:18:08;;;;;;;14.50;12.10;;;;;;;27.56;56.41;101012.00;6278913;22;20342;-76
2023/07/18 03:20:33;;;;;;;14.37;11.60;;;;;;;27.65;56.35;101011.13;6306163;22;20615;-75
2023/07/18 03:22:59;;;;;;;13.82;11.10;;;;;;;27.76;55.65;101009.19;6305920;22;20425;-75
2023/07/18 03:25:25;;;;;;;14.73;11.43;;;;;;;27.93;55.11;101021.69;6306198;22;20360;-76
2023/07/18 03:27:51;;;;;;;17.02;12.07;;;;;;;28.04;54.76;101028.72;6305457;22;20826;-77
2023/07/18 03:30:17;;;;;;;15.75;11.55;;;;;;;28.12;54.62;101025.41;6305149;22;20655;-76
2023/07/18 03:32:43;;;;;;;16.33;11.97;;;;;;;28.19;54.26;101022.38;6278450;22;20353;-76
2023/07/18 03:35:10;;;;;;;14.77;11.25;;;;;;;28.28;54.03;101030.78;6306207;22;20342;-76
2023/07/18 03:37:36;;;;;;;14.70;11.30;;;;;;;28.25;53.91;101026.69;6306130;22;20334;-76
2023/07/18 03:40:04;;;;;;;15.60;11.30;;;;;;;28.26;53.92;101019.34;6305681;22;20353;-76
2023/07/18 03:42:30;;;;;;;15.43;10.80;;;;;;;28.27;54.03;101020.97;6305297;22;20395;-77
2023/07/18 03:44:55;;;;;;;19.57;11.60;;;;;;;28.25;53.84;101025.88;6306569;22;20342;-75
2023/07/18 03:47:21;;;;;;;12.00;10.10;;;;;;;28.18;53.65;101021.56;6306062;22;20366;-77
2023/07/18 03:49:46;;;;;;;19.67;10.40;;;;;;;28.19;53.69;101023.19;6305652;22;20342;-76
2023/07/18 03:52:12;;;;;;;20.25;11.68;;;;;;;28.26;53.56;101020.16;6305779;22;20355;-76
2023/07/18 03:54:37;;;;;;;17.63;10.60;;;;;;;28.29;53.30;101024.22;6278587;22;20345;-76
2023/07/18 03:57:03;;;;;;;18.53;10.73;;;;;;;28.41;52.99;101016.53;6307328;22;20366;-76
2023/07/18 03:59:29;;;;;;;16.00;10.50;;;;;;;28.45;52.97;101019.50;6307190;22;20346;-77
2023/07/18 04:01:55;;;;;;;15.57;10.77;;;;;;;28.54;52.39;101009.63;6304233;22;20330;-77
2023/07/18 04:04:20;;;;;;;13.70;10.55;;;;;;;28.62;52.31;101022.69;6276649;22;20864;-77
2023/07/18 04:06:46;;;;;;;15.00;10.73;;;;;;;28.72;52.02;101013.59;6304493;22;20330;-76
2023/07/18 04:09:11;;;;;;;15.30;10.57;;;;;;;28.86;51.68;101019.22;6304804;22;20352;-76
2023/07/18 04:11:38;;;;;;;14.50;10.80;;;;;;;28.90;51.31;101010.19;6304298;22;20812;-76
2023/07/18 04:14:03;;;;;;;12.97;9.97;;;;;;;28.97;51.05;101012.56;6307065;22;20334;-75
2023/07/18 04:16:29;;;;;;;19.20;10.10;;;;;;;29.03;50.83;101008.72;6306737;22;20433;-76
2023/07/18 04:18:55;;;;;;;12.37;10.10;;;;;;;29.12;50.68;101017.91;6304544;22;20422;-76
2023/07/18 04:21:21;;;;;;;17.98;11.32;;;;;;;29.29;50.30;101017.50;6305175;22;20346;-76
2023/07/18 04:23:47;;;;;;;16.67;10.40;;;;;;;29.44;49.99;101024.72;6305179;22;20334;-76
2023/07/18 04:26:13;;;;;;;16.00;10.63;;;;;;;29.48;49.97;101019.50;6305245;22;20338;-76
2023/07/18 04:28:39;;;;;;;15.20;10.30;;;;;;;29.54;49.71;101016.41;6305491;22;20688;-76
2023/07/18 04:31:06;;;;;;;17.58;10.70;;;;;;;29.67;49.30;101022.28;6305296;22;20334;-77
2023/07/18 04:33:34;;;;;;;14.30;10.73;;;;;;;29.80;49.06;101018.88;6304174;22;20389;-76
2023/07/18 04:36:00;;;;;;;15.98;10.05;;;;;;;29.97;48.66;101020.31;6276683;22;21417;-76
2023/07/18 04:38:26;;;;;;;16.98;10.05;;;;;;;30.07;48.62;101020.16;6305423;22;20338;-76
2023/07/18 04:40:51;;;;;;;14.37;10.10;;;;;;;30.12;48.27;101006.41;6304875;22;20329;-76
2023/07/18 04:43:17;;;;;;;14.10;10.00;;;;;;;30.27;48.02;101010.84;6278006;22;20341;-77
2023/07/18 04:45:47;;;;;;;20.10;11.43;;;;;;;30.34;47.74;101008.59;6302795;22;20710;-76
2023/07/18 04:48:13;;;;;;;14.68;10.02;;;;;;;30.43;47.62;101008.75;6301908;22;20366;-76
2023/07/18 04:50:41;;;;;;;16.55;10.32;;;;;;;30.43;47.46;101008.75;6298624;22;20366;-76
2023/07/18 04:53:07;;;;;;;14.90;10.55;;;;;;;30.57;47.10;101014.28;6296715;22;20786;-76
2023/07/18 04:55:34;;;;;;;14.70;10.68;;;;;;;30.69;47.29;101014.63;6301231;22;20445;-76
2023/07/18 04:58:01;;;;;;;19.15;10.45;;;;;;;30.75;47.23;101013.44;6302013;22;20448;-77
2023/07/18 05:00:28;;;;;;;16.35;10.25;;;;;;;30.87;46.68;101008.31;6302937;22;20341;-77
2023/07/18 05:02:53;;;;;;;13.73;10.15;;;;;;;30.87;46.74;101007.50;6303209;22;20353;-75
2023/07/18 05:05:19;;;;;;;18.27;10.80;;;;;;;30.97;46.54;101004.63;6304311;22;20330;-76
2023/07/18 05:07:47;;;;;;;16.65;10.35;;;;;;;31.03;46.56;101010.81;6305686;22;20439;-75
2023/07/18 05:10:13;;;;;;;13.53;9.93;;;;;;;31.01;46.51;101010.31;6305560;22;20407;-75
2023/07/18 05:12:39;;;;;;;11.27;10.03;;;;;;;31.08;46.28;101008.00;6306598;22;20666;-76
2023/07/18 05:15:05;;;;;;;13.98;10.75;;;;;;;31.15;45.92;101002.09;6305388;22;20916;-75
2023/07/18 05:17:30;;;;;;;13.43;10.82;;;;;;;31.22;46.17;101014.31;6304655;22;20805;-76
2023/07/18 05:19:56;;;;;;;17.37;11.20;;;;;;;31.28;46.30;101016.91;6305370;22;20338;-76
2023/07/18 05:22:22;;;;;;;13.10;10.50;;;;;;;31.44;45.81;101013.59;6305223;22;20787;-75
2023/07/18 05:24:47;;;;;;;10.60;9.30;;;;;;;31.42;45.88;101015.84;6304690;22;20338;-75
2023/07/18 05:27:13;;;;;;;14.47;9.20;;;;;;;31.52;45.33;101014.03;6304753;22;20370;-76
2023/07/18 05:29:38;;;;;;;11.77;9.13;;;;;;;31.64;45.23;101025.31;6304949;22;20425;-75
2023/07/18 05:32:05;;;;;;;12.10;9.43;;;;;;;31.76;45.32;101027.53;6276704;22;20342;-75
2023/07/18 05:34:32;;;;;;;10.18;8.73;;;;;;;31.85;44.69;101025.69;6303902;22;20771;-76
2023/07/18 05:37:00;;;;;;;11.73;8.47;;;;;;;31.96;44.84;101032.59;6303806;22;20416;-76
2023/07/18 05:39:27;;;;;;;11.98;9.63;;;;;;;32.15;44.67;101026.19;6303497;22;20334;-75
2023/07/18 05:41:54;;;;;;;12.35;8.85;;;;;;;32.25;44.08;101031.44;6304653;22;20759;-77
2023/07/18 05:44:19;;;;;;;16.43;9.23;;;;;;;32.34;43.92;101031.50;6307185;22;20334;-76
2023/07/18 05:46:45;;;;;;;13.45;8.57;;;;;;;32.30;43.74;101027.75;6281089;22;21094;-76
2023/07/18 05:49:10;;;;;;;11.38;8.40;;;;;;;32.53;43.66;101034.09;6304797;22;20356;-75
2023/07/18 05:51:36;;;;;;;13.32;8.88;;;;;;;32.73;42.94;101035.56;6279734;22;20519;-76
2023/07/18 05:54:04;;;;;;;14.80;7.87;;;;;;;32.60;43.11;101034.50;6304971;22;20345;-76
2023/07/18 05:56:30;;;;;;;13.33;8.10;;;;;;;32.70;43.17;101030.69;6304917;22;20365;-76
2023/07/18 05:58:55;;;;;;;13.75;7.28;;;;;;;32.80;42.41;101043.38;6305039;22;20398;-76
2023/07/18 06:01:21;;;;;;;12.07;7.30;;;;;;;32.71;42.37;101038.63;6304837;22;20421;-78
2023/07/18 06:03:47;;;;;;;13.82;7.85;;;;;;;32.78;42.78;101042.88;6305779;22;20776;-77
2023/07/18 06:06:13;;;;;;;13.30;7.47;;;;;;;32.92;42.30;101032.63;6304502;22;20403;-76
2023/07/18 06:08:39;;;;;;;12.60;7.50;;;;;;;33.04;41.89;101043.81;6305566;22;20370;-76
2023/07/18 06:11:04;;;;;;;15.73;7.47;;;;;;;33.07;41.90;101043.19;6304720;22;20452;-76
2023/07/18 06:13:30;;;;;;;12.23;7.30;;;;;;;33.20;41.61;101040.72;6303817;22;20720;-77
2023/07/18 06:15:55;;;;;;;12.30;7.07;;;;;;;33.08;41.66;101050.34;6304224;22;20352;-76
2023/07/18 06:18:21;;;;;;;14.87;6.97;;;;;;;33.04;41.74;101045.78;6303926;22;20708;-75
2023/07/18 06:20:46;;;;;;;11.87;6.67;;;;;;;32.98;41.82;101036.84;6304933;22;20432;-75
2023/07/18 06:23:13;;;;;;;11.23;7.40;;;;;;;33.14;41.77;101048.28;6304916;22;20370;-76
2023/07/18 06:25:38;;;;;;;12.38;7.07;;;;;;;33.31;41.38;101047.56;6277723;22;20345;-76
2023/07/18 06:28:04;;;;;;;15.55;7.13;;;;;;;33.32;41.39;101052.75;6308534;22;20361;-75
2023/07/18 06:30:30;;;;;;;12.18;6.30;;;;;;;32.67;41.64;101053.28;6303458;22;20417;-75
2023/07/18 06:32:56;;;;;;;14.80;6.80;;;;;;;32.90;41.56;101049.41;6304563;22;20345;-76
2023/07/18 06:35:22;;;;;;;13.07;7.40;;;;;;;32.99;41.40;101056.88;6302004;22;20651;-76
2023/07/18 06:37:47;;;;;;;10.47;6.90;;;;;;;32.67;41.69;101058.78;6302270;22;20338;-75
2023/07/18 06:40:13;;;;;;;14.07;6.07;;;;;;;32.69;41.57;101070.25;6302327;22;20334;-76
2023/07/18 06:42:39;;;;;;;9.82;6.38;;;;;;;32.58;42.05;101065.00;6301898;22;20961;-75
2023/07/18 06:45:06;;;;;;;17.33;7.07;;;;;;;32.85;41.76;101066.00;6302029;22;20666;-75
2023/07/18 06:47:31;;;;;;;15.35;7.25;;;;;;;32.86;41.72;101053.09;6305454;22;20362;-76
2023/07/18 06:49:57;;;;;;;12.40;7.03;;;;;;;33.24;41.21;101052.69;6306318;22;20438;-78
2023/07/18 06:52:23;;;;;;;10.50;5.77;;;;;;;32.81;40.94;101061.44;6305048;22;20634;-78
2023/07/18 06:54:48;;;;;;;10.07;5.90;;;;;;;32.26;41.86;101067.91;6305517;22;20338;-75
2023/07/18 06:57:15;;;;;;;12.87;5.90;;;;;;;32.33;41.93;101054.59;6305585;22;20396;-76
2023/07/18 06:59:42;;;;;;;7.63;4.90;;;;;;;32.24;41.63;101065.47;6305991;22;20779;-76
2023/07/18 07:02:11;;;;;;;11.05;6.28;;;;;;;32.35;42.04;101077.84;6306336;22;20338;-75
2023/07/18 07:04:39;;;;;;;12.82;6.32;;;;;;;32.42;41.96;101060.16;6306738;22;20834;-76
2023/07/18 07:07:06;;;;;;;7.68;5.70;;;;;;;32.82;40.91;101050.16;6279957;22;20377;-76
2023/07/18 07:09:33;;;;;;;11.88;6.18;;;;;;;32.81;41.23;101056.78;6307457;22;20832;-78
2023/07/18 07:11:59;;;;;;;11.40;5.72;;;;;;;32.94;40.54;101066.06;6310129;22;20334;-76
2023/07/18 07:14:24;;;;;;;13.35;5.82;;;;;;;32.97;40.15;101081.91;6308374;22;20413;-76
2023/07/18 07:16:50;;;;;;;12.83;6.33;;;;;;;33.07;40.17;101064.38;6308184;22;20341;-76
2023/07/18 07:19:15;;;;;;;16.10;6.70;;;;;;;33.21;39.54;101070.63;6307005;22;20337;-77
2023/07/18 07:21:42;;;;;;;12.10;5.43;;;;;;;33.12;39.83;101067.00;6306673;22;20374;-77
2023/07/18 07:24:08;;;;;;;8.53;4.63;;;;;;;33.03;39.61;101090.84;6308148;22;20345;-75
2023/07/18 07:26:37;;;;;;;9.90;5.32;;;;;;;33.02;39.61;101076.28;6307403;22;20330;-76
2023/07/18 07:29:04;;;;;;;10.02;4.97;;;;;;;32.69;40.02;101078.50;6307991;22;20441;-75
2023/07/18 07:31:30;;;;;;;6.82;5.50;;;;;;;32.88;39.88;101086.53;6283603;22;20419;-76
2023/07/18 07:33:56;;;;;;;14.63;5.47;;;;;;;33.03;39.65;101082.63;6311907;22;20338;-77
2023/07/18 07:36:22;;;;;;;14.77;5.40;;;;;;;33.04;39.94;101084.22;6307580;22;20347;-77
2023/07/18 07:38:49;;;;;;;11.30;5.20;;;;;;;33.16;39.59;101067.22;6307021;22;20770;-77
2023/07/18 07:41:15;;;;;;;14.60;5.22;;;;;;;33.20;39.00;101081.94;6307937;22;20337;-77
2023/07/18 07:43:40;;;;;;;10.40;4.25;;;;;;;33.11;38.92;101088.13;6306041;22;20334;-77
2023/07/18 07:46:06;;;;;;;11.70;4.93;;;;;;;33.24;38.27;101081.00;6306698;22;20342;-75
2023/07/18 07:48:31;;;;;;;14.83;4.87;;;;;;;33.14;37.75;101075.75;6306065;22;20410;-75
2023/07/18 07:50:58;;;;;;;11.60;5.27;;;;;;;33.03;37.82;101068.88;6309727;22;20403;-77
2023/07/18 07:53:24;;;;;;;6.65;3.80;;;;;;;33.24;37.94;101069.19;6307144;22;20334;-75
2023/07/18 07:55:49;;;;;;;10.40;5.10;;;;;;;33.52;37.06;101080.81;6307873;22;20880;-76
2023/07/18 07:58:15;;;;;;;7.87;4.93;;;;;;;33.92;36.93;101069.00;6306085;22;20365;-76
2023/07/18 08:00:41;;;;;;;9.07;4.57;;;;;;;33.92;36.37;101077.25;6308012;22;20338;-76
2023/07/18 08:03:06;;;;;;;6.23;4.37;;;;;;;34.00;36.22;101071.78;6307694;22;20668;-76
2023/07/18 08:05:32;;;;;;;13.03;4.87;;;;;;;34.35;35.42;101077.34;6305090;22;20368;-76
2023/07/18 08:07:57;;;;;;;9.85;4.22;;;;;;;34.39;34.11;101080.25;6297028;22;20370;-76
2023/07/18 08:10:23;;;;;;;7.32;4.53;;;;;;;34.42;34.19;101074.13;6296670;22;20791;-76
2023/07/18 08:12:49;;;;;;;12.93;4.43;;;;;;;34.69;33.73;101083.19;6268897;22;20429;-77
2023/07/18 08:15:14;;;;;;;11.33;4.57;;;;;;;34.72;33.63;101093.56;6298415;22;20406;-75
2023/07/18 08:17:40;;;;;;;13.17;4.77;;;;;;;34.60;33.77;101080.44;6297682;22;20344;-76
2023/07/18 08:20:08;;;;;;;10.93;4.37;;;;;;;34.78;33.79;101082.06;6269742;22;20786;-76
2023/07/18 08:22:33;;;;;;;10.27;4.55;;;;;;;35.04;33.68;101089.47;6269604;22;20353;-76
2023/07/18 08:24:59;;;;;;;8.17;4.40;;;;;;;34.95;32.96;101092.28;6303133;22;20341;-77
2023/07/18 08:27:26;;;;;;;12.73;4.00;;;;;;;35.10;32.60;101093.69;6307529;22;20448;-76
2023/07/18 08:29:52;;;;;;;8.30;3.78;;;;;;;35.15;31.84;101079.75;6306633;22;20357;-77
2023/07/18 08:32:17;;;;;;;5.27;3.33;;;;;;;34.90;31.20;101078.66;6310459;22;20334;-76
2023/07/18 08:34:42;;;;;;;7.20;3.47;;;;;;;34.69;30.58;101085.94;6308095;22;20334;-75
2023/07/18 08:37:09;;;;;;;8.75;3.08;;;;;;;34.89;29.98;101090.00;6280300;22;20342;-77
2023/07/18 08:39:35;;;;;;;6.78;3.38;;;;;;;34.84;29.96;101077.19;6305764;22;20372;-77
2023/07/18 08:42:05;;;;;;;6.90;3.33;;;;;;;34.85;29.25;101098.13;6306524;22;20334;-76
2023/07/18 08:44:31;;;;;;;6.70;3.00;;;;;;;34.90;29.23;101086.09;6305934;22;20424;-76
2023/07/18 08:47:00;;;;;;;5.80;2.90;;;;;;;35.09;28.76;101083.00;6307130;22;20341;-76
2023/07/18 08:49:28;;;;;;;7.88;3.28;;;;;;;35.34;28.75;101081.34;6306809;22;20349;-76
2023/07/18 08:51:54;;;;;;;8.00;2.90;;;;;;;35.65;28.33;101083.00;6308690;22;20338;-76
2023/07/18 08:54:20;;;;;;;5.57;2.60;;;;;;;35.27;27.99;101065.31;6280367;22;20484;-77
2023/07/18 08:56:45;;;;;;;6.87;2.60;;;;;;;35.19;27.81;101079.91;6305830;22;20365;-76
2023/07/18 08:59:12;;;;;;;7.57;3.03;;;;;;;35.40;28.17;101075.31;6306712;22;20800;-78
2023/07/18 09:01:49;;;;;;;6.05;3.22;;;;;;;35.36;27.60;101068.84;6305565;22;20357;-77
2023/07/18 09:04:16;;;;;;;6.28;2.70;;;;;;;35.33;27.24;101069.50;6307531;22;20330;-75
2023/07/18 09:07:00;;;;;;;3.07;1.80;;;;;;;35.15;27.33;101087.19;6306915;22;20392;-76
2023/07/18 09:09:26;;;;;;;8.25;3.15;;;;;;;35.19;27.83;101075.22;6305122;22;20358;-76
2023/07/18 09:11:59;;;;;;;5.17;2.80;;;;;;;35.26;26.55;101082.16;6305271;22;20365;-75
2023/07/18 09:14:29;;;;;;;9.48;4.20;;;;;;;35.46;26.74;101078.69;6305996;22;20465;-75
2023/07/18 09:16:58;;;;;;;10.02;3.00;;;;;;;35.52;26.76;101080.13;6307018;22;20399;-78
2023/07/18 09:19:43;;;;;;;5.18;2.65;;;;;;;35.63;25.79;101083.31;6308624;22;20342;-75
2023/07/18 09:22:10;;;;;;;4.32;3.00;;;;;;;35.69;26.27;101079.25;6309203;22;20357;-78
2023/07/18 09:24:36;;;;;;;5.05;3.13;;;;;;;36.05;25.87;101088.97;6306627;22;20330;-76
2023/07/18 09:27:07;;;;;;;8.75;3.13;;;;;;;35.86;25.24;101094.13;6306977;22;20341;-76
2023/07/18 09:29:34;;;;;;;7.97;3.00;;;;;;;35.85;25.08;101086.97;6278589;22;20757;-78
2023/07/18 09:32:00;;;;;;;10.15;3.55;;;;;;;35.87;25.33;101091.03;6304768;22;20334;-75
2023/07/18 09:34:27;;;;;;;6.10;2.97;;;;;;;36.04;25.24;101073.56;6305199;22;20357;-76
2023/07/18 09:36:57;;;;;;;5.35;2.60;;;;;;;36.07;25.16;101075.66;6280366;22;20432;-76
2023/07/18 09:39:23;;;;;;;6.72;2.70;;;;;;;36.08;25.24;101073.69;6308245;22;20345;-75
2023/07/18 09:41:50;;;;;;;7.30;2.80;;;;;;;36.29;24.96;101077.31;6303511;22;20334;-76
2023/07/18 09:44:16;;;;;;;6.47;2.55;;;;;;;36.24;23.91;101077.50;6306393;22;20344;-77
2023/07/18 09:46:43;;;;;;;5.78;2.58;;;;;;;36.14;24.13;101078.69;6305234;22;20688;-75
2023/07/18 09:49:10;;;;;;;6.40;2.70;;;;;;;36.43;24.34;101082.56;6304716;22;20393;-76
2023/07/18 09:51:38;;;;;;;7.40;2.80;;;;;;;36.36;22.85;101087.81;6305453;22;20333;-76
2023/07/18 09:54:05;;;;;;;5.32;2.35;;;;;;;36.14;22.43;101089.72;6305744;22;20412;-75
2023/07/18 09:56:34;;;;;;;8.18;2.75;;;;;;;36.11;22.80;101079.34;6305051;22;20763;-76
2023/07/18 09:59:05;;;;;;;8.45;2.63;;;;;;;36.03;22.41;101082.97;6305890;22;20352;-76
2023/07/18 10:01:32;;;;;;;5.93;2.90;;;;;;;36.30;22.73;101070.66;6306566;22;20330;-77
2023/07/18 10:03:58;;;;;;;4.95;2.30;;;;;;;36.54;21.57;101083.78;6305279;22;20338;-77
2023/07/18 10:06:25;;;;;;;5.80;2.78;;;;;;;36.57;21.81;101067.66;6306397;22;20394;-76
2023/07/18 10:08:53;;;;;;;6.15;2.78;;;;;;;36.54;22.14;101061.69;6306271;22;20373;-78
2023/07/18 10:11:19;;;;;;;4.43;2.58;;;;;;;36.72;22.09;101069.84;6306024;22;20349;-77
2023/07/18 10:14:07;;;;;;;5.75;2.83;;;;;;;36.77;21.23;101071.56;6306440;22;20330;-77
2023/07/18 10:16:35;;;;;;;7.35;2.90;;;;;;;36.73;21.14;101068.69;6306455;22;20395;-76
2023/07/18 10:19:19;;;;;;;6.70;2.83;;;;;;;36.81;21.79;101067.00;6308023;22;20399;-76
2023/07/18 10:21:48;;;;;;;6.70;2.58;;;;;;;36.59;23.14;101062.59;6307130;22;20334;-76
2023/07/18 10:24:24;;;;;;;6.00;3.10;;;;;;;36.67;23.11;101061.72;6308675;22;20789;-77
2023/07/18 10:26:57;;;;;;;4.78;2.80;;;;;;;36.55;23.27;101055.03;6308362;22;20372;-76
2023/07/18 10:29:22;;;;;;;5.85;2.72;;;;;;;36.93;23.16;101050.44;6308834;22;20365;-77
2023/07/18 10:31:48;;;;;;;8.47;2.73;;;;;;;37.22;22.27;101045.91;6308735;22;20658;-78
2023/07/18 10:34:17;;;;;;;4.80;2.87;;;;;;;37.29;22.40;101048.91;6308913;22;20382;-77
2023/07/18 10:36:59;;;;;;;3.72;2.90;;;;;;;37.21;22.83;101060.91;6282281;22;20377;-76
2023/07/18 10:39:50;;;;;;;5.27;2.73;;;;;;;37.28;22.93;101044.56;6310127;22;20424;-76
2023/07/18 10:42:25;;;;;;;5.63;3.10;;;;;;;37.45;23.53;101043.50;6309314;22;20341;-77
2023/07/18 10:44:56;;;;;;;4.23;2.60;;;;;;;37.30;23.43;101048.56;6309639;22;20334;-76
2023/07/18 10:47:21;;;;;;;6.90;3.25;;;;;;;37.26;23.85;101038.56;6307947;22;20433;-78
2023/07/18 10:49:47;;;;;;;4.70;2.90;;;;;;;37.41;23.78;101028.78;6307904;22;20381;-76
2023/07/18 10:52:14;;;;;;;5.60;2.97;;;;;;;37.66;23.40;101035.13;6307653;22;20334;-78
2023/07/18 10:54:58;;;;;;;5.57;3.13;;;;;;;37.42;23.97;101036.72;6308681;22;20326;-77
2023/07/18 10:57:25;;;;;;;5.97;3.20;;;;;;;37.16;23.56;101027.94;6307006;22;20444;-75
2023/07/18 10:59:51;;;;;;;5.07;2.50;;;;;;;36.90;24.06;101035.34;6280848;22;20799;-76
2023/07/18 11:02:19;;;;;;;5.78;2.97;;;;;;;37.20;23.56;101032.44;6281910;22;20334;-75
2023/07/18 11:04:45;;;;;;;5.23;2.53;;;;;;;37.33;23.70;101038.81;6308669;22;20334;-76
2023/07/18 11:07:10;;;;;;;7.18;3.20;;;;;;;37.21;23.49;101019.44;6307524;22;20683;-77
2023/07/18 11:09:36;;;;;;;7.25;3.28;;;;;;;37.45;23.58;101029.69;6310791;22;20338;-76
2023/07/18 11:12:03;;;;;;;5.95;3.08;;;;;;;37.12;23.16;101023.06;6324152;22;20383;-80
2023/07/18 11:14:40;;;;;;;5.57;2.90;;;;;;;37.37;23.29;101027.84;6316556;22;20342;-77